sensor_id;sensor_type;location;lat;lon;timestamp;noise_LAeq;noise_LA_min;noise_LA_max;noise_LA01;noise_LA95
40465;Laerm;30489;48.982;8.394;2023-06-22T00:00:11;40.41;38.81;41.81;;
40465;Laerm;30489;48.982;8.394;2023-06-22T00:02:22;40.42;38.52;41.68;;
40465;Laerm;30489;48.982;8.394;2023-06-22T00:04:35;40.38;38.37;41.75;;
40465;Laerm;30489;48.982;8.394;2023-06-22T00:06:45;40.41;38.67;41.89;;
40465;Laerm;30489;48.982;8.394;2023-06-22T00:08:55;40.36;38.81;41.89;;
40465;Laerm;30489;48.982;8.394;2023-06-22T00:11:06;40.35;38.81;41.68;;
40465;Laerm;30489;48.982;8.394;2023-06-22T00:13:16;40.42;38.52;41.82;;
40465;Laerm;30489;48.982;8.394;2023-06-22T00:15:27;40.40;38.67;41.89;;
40465;Laerm;30489;48.982;8.394;2023-06-22T00:17:37;40.42;38.52;42.65;;
40465;Laerm;30489;48.982;8.394;2023-06-22T00:19:47;40.39;38.21;43.63;;
40465;Laerm;30489;48.982;8.394;2023-06-22T00:22:05;40.38;38.67;41.96;;
40465;Laerm;30489;48.982;8.394;2023-06-22T00:24:15;40.35;38.52;42.59;;
40465;Laerm;30489;48.982;8.394;2023-06-22T00:26:26;40.33;38.67;41.96;;
40465;Laerm;30489;48.982;8.394;2023-06-22T00:28:36;40.30;38.52;42.35;;
40465;Laerm;30489;48.982;8.394;2023-06-22T00:30:49;40.28;38.05;41.75;;
40465;Laerm;30489;48.982;8.394;2023-06-22T00:33:06;40.28;38.37;42.65;;
40465;Laerm;30489;48.982;8.394;2023-06-22T00:35:17;40.27;38.52;43.86;;
40465;Laerm;30489;48.982;8.394;2023-06-22T00:37:27;39.87;37.88;45.89;;
40465;Laerm;30489;48.982;8.394;2023-06-22T00:39:39;39.86;37.70;42.03;;
40465;Laerm;30489;48.982;8.394;2023-06-22T00:41:49;39.79;37.70;41.46;;
40465;Laerm;30489;48.982;8.394;2023-06-22T00:44:00;39.78;37.52;41.38;;
40465;Laerm;30489;48.982;8.394;2023-06-22T00:46:19;39.70;37.12;41.82;;
40465;Laerm;30489;48.982;8.394;2023-06-22T00:48:29;39.68;37.52;41.68;;
40465;Laerm;30489;48.982;8.394;2023-06-22T00:50:39;39.65;37.12;41.38;;
40465;Laerm;30489;48.982;8.394;2023-06-22T00:52:53;39.60;37.52;41.22;;
40465;Laerm;30489;48.982;8.394;2023-06-22T00:55:06;39.59;37.12;41.14;;
40465;Laerm;30489;48.982;8.394;2023-06-22T00:57:16;39.54;37.52;41.46;;
40465;Laerm;30489;48.982;8.394;2023-06-22T00:59:27;39.53;37.32;41.53;;
40465;Laerm;30489;48.982;8.394;2023-06-22T01:01:37;39.48;36.91;41.89;;
40465;Laerm;30489;48.982;8.394;2023-06-22T01:03:51;39.47;37.32;41.26;;
40465;Laerm;30489;48.982;8.394;2023-06-22T01:06:04;39.46;37.32;42.16;;
40465;Laerm;30489;48.982;8.394;2023-06-22T01:11:10;39.41;36.69;42.82;;
40465;Laerm;30489;48.982;8.394;2023-06-22T01:15:44;39.37;37.12;45.01;;
40465;Laerm;30489;48.982;8.394;2023-06-22T01:17:56;39.35;36.91;42.03;;
40465;Laerm;30489;48.982;8.394;2023-06-22T01:20:07;39.37;36.91;41.61;;
40465;Laerm;30489;48.982;8.394;2023-06-22T01:22:18;39.34;36.91;41.46;;
40465;Laerm;30489;48.982;8.394;2023-06-22T01:24:32;39.38;36.45;45.27;;
40465;Laerm;30489;48.982;8.394;2023-06-22T01:29:15;39.42;36.45;42.41;;
40465;Laerm;30489;48.982;8.394;2023-06-22T01:31:26;39.34;36.45;41.46;;
40465;Laerm;30489;48.982;8.394;2023-06-22T01:33:37;39.25;36.91;42.41;;
40465;Laerm;30489;48.982;8.394;2023-06-22T01:35:49;39.28;37.12;41.38;;
40465;Laerm;30489;48.982;8.394;2023-06-22T01:37:59;39.36;35.94;42.53;;
40465;Laerm;30489;48.982;8.394;2023-06-22T01:40:09;39.31;36.69;42.88;;
40465;Laerm;30489;48.982;8.394;2023-06-22T01:42:20;39.32;36.91;41.68;;
40465;Laerm;30489;48.982;8.394;2023-06-22T01:44:30;39.29;36.77;42.16;;
40465;Laerm;30489;48.982;8.394;2023-06-22T01:46:40;39.25;36.69;41.96;;
40465;Laerm;30489;48.982;8.394;2023-06-22T01:48:51;39.30;37.12;42.41;;
40465;Laerm;30489;48.982;8.394;2023-06-22T01:51:09;39.29;36.69;41.38;;
40465;Laerm;30489;48.982;8.394;2023-06-22T01:53:20;39.22;36.45;41.96;;
40465;Laerm;30489;48.982;8.394;2023-06-22T01:55:31;39.28;36.91;42.41;;
40465;Laerm;30489;48.982;8.394;2023-06-22T01:57:41;39.27;36.69;41.75;;
40465;Laerm;30489;48.982;8.394;2023-06-22T02:00:01;39.26;36.45;41.22;;
40465;Laerm;30489;48.982;8.394;2023-06-22T02:02:13;39.22;36.91;41.46;;
40465;Laerm;30489;48.982;8.394;2023-06-22T02:04:26;39.22;36.45;41.06;;
40465;Laerm;30489;48.982;8.394;2023-06-22T02:06:37;39.17;36.45;41.06;;
40465;Laerm;30489;48.982;8.394;2023-06-22T02:08:57;39.15;36.69;41.68;;
40465;Laerm;30489;48.982;8.394;2023-06-22T02:11:09;39.23;36.10;43.29;;
40465;Laerm;30489;48.982;8.394;2023-06-22T02:13:23;39.23;36.69;41.82;;
40465;Laerm;30489;48.982;8.394;2023-06-22T02:15:34;39.25;36.45;41.22;;
40465;Laerm;30489;48.982;8.394;2023-06-22T02:17:47;39.29;36.45;41.55;;
40465;Laerm;30489;48.982;8.394;2023-06-22T02:20:02;39.25;36.91;41.30;;
40465;Laerm;30489;48.982;8.394;2023-06-22T02:22:13;39.24;36.45;41.22;;
40465;Laerm;30489;48.982;8.394;2023-06-22T02:24:23;39.27;36.69;41.46;;
40465;Laerm;30489;48.982;8.394;2023-06-22T02:26:33;39.28;36.69;41.46;;
40465;Laerm;30489;48.982;8.394;2023-06-22T02:28:44;39.30;36.69;42.09;;
40465;Laerm;30489;48.982;8.394;2023-06-22T02:30:59;39.32;36.56;41.89;;
40465;Laerm;30489;48.982;8.394;2023-06-22T02:33:09;39.31;36.69;41.46;;
40465;Laerm;30489;48.982;8.394;2023-06-22T02:35:20;39.33;36.45;42.71;;
40465;Laerm;30489;48.982;8.394;2023-06-22T02:37:31;39.35;36.45;41.46;;
40465;Laerm;30489;48.982;8.394;2023-06-22T02:39:41;39.39;36.69;41.68;;
40465;Laerm;30489;48.982;8.394;2023-06-22T02:41:54;39.44;36.69;41.46;;
40465;Laerm;30489;48.982;8.394;2023-06-22T02:44:07;39.39;36.45;41.61;;
40465;Laerm;30489;48.982;8.394;2023-06-22T02:46:18;39.31;36.69;41.68;;
40465;Laerm;30489;48.982;8.394;2023-06-22T02:48:28;39.34;36.91;41.82;;
40465;Laerm;30489;48.982;8.394;2023-06-22T02:50:39;39.30;36.20;41.22;;
40465;Laerm;30489;48.982;8.394;2023-06-22T02:52:49;39.31;36.91;41.75;;
40465;Laerm;30489;48.982;8.394;2023-06-22T02:54:59;39.33;36.45;41.53;;
40465;Laerm;30489;48.982;8.394;2023-06-22T02:57:12;39.35;36.69;41.61;;
40465;Laerm;30489;48.982;8.394;2023-06-22T02:59:27;39.31;36.45;41.81;;
40465;Laerm;30489;48.982;8.394;2023-06-22T03:01:38;39.32;36.69;41.46;;
40465;Laerm;30489;48.982;8.394;2023-06-22T03:03:49;39.29;36.45;41.30;;
40465;Laerm;30489;48.982;8.394;2023-06-22T03:06:00;39.37;36.91;41.53;;
40465;Laerm;30489;48.982;8.394;2023-06-22T03:08:15;39.31;36.45;41.38;;
40465;Laerm;30489;48.982;8.394;2023-06-22T03:10:28;39.37;36.69;41.61;;
40465;Laerm;30489;48.982;8.394;2023-06-22T03:12:39;39.39;36.69;41.61;;
40465;Laerm;30489;48.982;8.394;2023-06-22T03:14:49;39.30;36.91;41.38;;
40465;Laerm;30489;48.982;8.394;2023-06-22T03:17:00;39.29;36.69;41.61;;
40465;Laerm;30489;48.982;8.394;2023-06-22T03:19:13;39.45;36.91;41.75;;
40465;Laerm;30489;48.982;8.394;2023-06-22T03:21:27;39.31;36.91;41.89;;
40465;Laerm;30489;48.982;8.394;2023-06-22T03:23:37;39.34;36.69;41.53;;
40465;Laerm;30489;48.982;8.394;2023-06-22T03:25:47;39.33;36.91;41.14;;
40465;Laerm;30489;48.982;8.394;2023-06-22T03:27:58;39.42;36.91;42.03;;
40465;Laerm;30489;48.982;8.394;2023-06-22T03:30:09;39.32;36.69;41.38;;
40465;Laerm;30489;48.982;8.394;2023-06-22T03:32:22;39.30;36.91;41.38;;
40465;Laerm;30489;48.982;8.394;2023-06-22T03:34:40;39.32;35.94;41.30;;
40465;Laerm;30489;48.982;8.394;2023-06-22T03:36:50;39.27;36.91;41.14;;
40465;Laerm;30489;48.982;8.394;2023-06-22T03:39:00;39.30;36.69;41.30;;
40465;Laerm;30489;48.982;8.394;2023-06-22T03:41:10;39.24;36.45;41.22;;
40465;Laerm;30489;48.982;8.394;2023-06-22T03:43:29;39.24;36.20;41.06;;
40465;Laerm;30489;48.982;8.394;2023-06-22T03:45:40;39.26;36.20;41.38;;
40465;Laerm;30489;48.982;8.394;2023-06-22T03:47:50;39.24;36.20;41.48;;
40465;Laerm;30489;48.982;8.394;2023-06-22T03:50:00;39.25;36.69;42.03;;
40465;Laerm;30489;48.982;8.394;2023-06-22T03:52:13;39.25;36.69;41.22;;
40465;Laerm;30489;48.982;8.394;2023-06-22T03:54:23;39.26;36.45;41.22;;
40465;Laerm;30489;48.982;8.394;2023-06-22T03:56:44;39.26;36.45;41.30;;
40465;Laerm;30489;48.982;8.394;2023-06-22T03:58:54;39.29;35.94;42.47;;
40465;Laerm;30489;48.982;8.394;2023-06-22T04:01:04;39.25;36.45;42.09;;
40465;Laerm;30489;48.982;8.394;2023-06-22T04:03:24;39.19;36.20;41.30;;
40465;Laerm;30489;48.982;8.394;2023-06-22T04:05:36;39.22;36.91;41.38;;
40465;Laerm;30489;48.982;8.394;2023-06-22T04:07:47;39.24;36.20;41.14;;
40465;Laerm;30489;48.982;8.394;2023-06-22T04:09:58;39.27;35.94;41.53;;
40465;Laerm;30489;48.982;8.394;2023-06-22T04:12:08;39.20;36.45;41.14;;
40465;Laerm;30489;48.982;8.394;2023-06-22T04:14:18;39.17;36.45;41.53;;
40465;Laerm;30489;48.982;8.394;2023-06-22T04:16:29;39.25;36.34;41.61;;
40465;Laerm;30489;48.982;8.394;2023-06-22T04:18:39;39.27;36.20;41.53;;
40465;Laerm;30489;48.982;8.394;2023-06-22T04:20:51;39.24;36.45;41.14;;
40465;Laerm;30489;48.982;8.394;2023-06-22T04:23:02;39.27;36.45;41.30;;
40465;Laerm;30489;48.982;8.394;2023-06-22T04:25:12;39.27;36.69;41.22;;
40465;Laerm;30489;48.982;8.394;2023-06-22T04:27:22;39.25;35.94;41.06;;
40465;Laerm;30489;48.982;8.394;2023-06-22T04:29:33;39.23;36.20;41.22;;
40465;Laerm;30489;48.982;8.394;2023-06-22T04:31:43;39.26;35.94;41.30;;
40465;Laerm;30489;48.982;8.394;2023-06-22T04:33:53;39.25;35.66;41.55;;
40465;Laerm;30489;48.982;8.394;2023-06-22T04:36:06;39.25;36.45;41.75;;
40465;Laerm;30489;48.982;8.394;2023-06-22T04:38:16;39.32;36.45;41.46;;
40465;Laerm;30489;48.982;8.394;2023-06-22T04:40:26;39.29;36.91;42.47;;
40465;Laerm;30489;48.982;8.394;2023-06-22T04:42:37;39.21;36.45;41.22;;
40465;Laerm;30489;48.982;8.394;2023-06-22T04:44:47;39.25;36.45;41.75;;
40465;Laerm;30489;48.982;8.394;2023-06-22T04:46:58;39.26;36.69;42.65;;
40465;Laerm;30489;48.982;8.394;2023-06-22T04:49:16;39.29;35.94;41.22;;
40465;Laerm;30489;48.982;8.394;2023-06-22T04:51:26;39.27;36.20;41.46;;
40465;Laerm;30489;48.982;8.394;2023-06-22T04:53:40;39.32;36.69;41.38;;
40465;Laerm;30489;48.982;8.394;2023-06-22T04:55:51;39.29;36.69;41.30;;
40465;Laerm;30489;48.982;8.394;2023-06-22T04:58:03;39.31;36.20;41.33;;
40465;Laerm;30489;48.982;8.394;2023-06-22T05:00:23;39.24;36.20;41.06;;
40465;Laerm;30489;48.982;8.394;2023-06-22T05:02:33;39.26;36.91;41.19;;
40465;Laerm;30489;48.982;8.394;2023-06-22T05:04:43;39.26;36.69;41.38;;
40465;Laerm;30489;48.982;8.394;2023-06-22T05:07:04;39.25;36.45;41.48;;
40465;Laerm;30489;48.982;8.394;2023-06-22T05:09:14;39.31;36.69;42.16;;
40465;Laerm;30489;48.982;8.394;2023-06-22T05:11:25;39.29;36.20;41.68;;
40465;Laerm;30489;48.982;8.394;2023-06-22T05:13:35;39.26;36.69;41.82;;
40465;Laerm;30489;48.982;8.394;2023-06-22T05:15:45;39.28;36.56;41.30;;
40465;Laerm;30489;48.982;8.394;2023-06-22T05:17:57;39.27;36.45;41.30;;
40465;Laerm;30489;48.982;8.394;2023-06-22T05:20:13;39.28;36.45;41.82;;
40465;Laerm;30489;48.982;8.394;2023-06-22T05:22:25;39.22;36.91;41.14;;
40465;Laerm;30489;48.982;8.394;2023-06-22T05:24:35;39.15;36.45;41.82;;
40465;Laerm;30489;48.982;8.394;2023-06-22T05:26:45;39.25;36.91;41.14;;
40465;Laerm;30489;48.982;8.394;2023-06-22T05:28:55;39.34;36.45;41.38;;
40465;Laerm;30489;48.982;8.394;2023-06-22T05:31:13;39.38;36.69;41.22;;
40465;Laerm;30489;48.982;8.394;2023-06-22T05:33:24;39.36;36.45;41.46;;
40465;Laerm;30489;48.982;8.394;2023-06-22T05:35:34;39.34;36.91;41.14;;
40465;Laerm;30489;48.982;8.394;2023-06-22T05:37:44;39.33;36.69;41.61;;
40465;Laerm;30489;48.982;8.394;2023-06-22T05:39:55;39.32;36.45;41.38;;
40465;Laerm;30489;48.982;8.394;2023-06-22T05:42:05;39.26;36.45;40.89;;
40465;Laerm;30489;48.982;8.394;2023-06-22T05:44:16;39.31;37.12;41.22;;
40465;Laerm;30489;48.982;8.394;2023-06-22T05:46:26;39.24;36.20;41.06;;
40465;Laerm;30489;48.982;8.394;2023-06-22T05:48:36;39.27;36.91;41.22;;
40465;Laerm;30489;48.982;8.394;2023-06-22T05:50:47;39.23;36.69;41.38;;
40465;Laerm;30489;48.982;8.394;2023-06-22T05:52:57;39.29;36.69;41.22;;
40465;Laerm;30489;48.982;8.394;2023-06-22T05:55:07;39.27;37.12;41.30;;
40465;Laerm;30489;48.982;8.394;2023-06-22T05:57:17;39.27;36.91;41.22;;
40465;Laerm;30489;48.982;8.394;2023-06-22T05:59:29;39.27;36.91;41.30;;
40465;Laerm;30489;48.982;8.394;2023-06-22T06:01:39;39.27;36.69;41.30;;
40465;Laerm;30489;48.982;8.394;2023-06-22T06:03:50;39.27;37.12;41.30;;
40465;Laerm;30489;48.982;8.394;2023-06-22T06:06:02;39.28;36.69;41.14;;
40465;Laerm;30489;48.982;8.394;2023-06-22T06:08:13;39.27;37.12;41.06;;
40465;Laerm;30489;48.982;8.394;2023-06-22T06:10:24;39.27;37.12;41.03;;
40465;Laerm;30489;48.982;8.394;2023-06-22T06:12:35;39.30;36.91;41.22;;
40465;Laerm;30489;48.982;8.394;2023-06-22T06:14:45;39.32;36.69;41.06;;
40465;Laerm;30489;48.982;8.394;2023-06-22T06:17:06;39.32;36.91;41.30;;
40465;Laerm;30489;48.982;8.394;2023-06-22T06:19:16;39.30;36.69;42.53;;
40465;Laerm;30489;48.982;8.394;2023-06-22T06:21:26;39.31;36.69;41.06;;
40465;Laerm;30489;48.982;8.394;2023-06-22T06:23:37;39.30;36.77;41.22;;
40465;Laerm;30489;48.982;8.394;2023-06-22T06:25:47;39.29;37.12;41.14;;
40465;Laerm;30489;48.982;8.394;2023-06-22T06:28:00;39.34;36.91;41.22;;
40465;Laerm;30489;48.982;8.394;2023-06-22T06:30:19;39.36;37.12;41.22;;
40465;Laerm;30489;48.982;8.394;2023-06-22T06:32:30;39.36;36.91;41.68;;
40465;Laerm;30489;48.982;8.394;2023-06-22T06:34:40;39.39;37.12;41.26;;
40465;Laerm;30489;48.982;8.394;2023-06-22T06:37:01;39.39;37.12;41.38;;
40465;Laerm;30489;48.982;8.394;2023-06-22T06:39:11;39.41;36.91;41.53;;
40465;Laerm;30489;48.982;8.394;2023-06-22T06:41:21;39.41;37.12;41.14;;
40465;Laerm;30489;48.982;8.394;2023-06-22T06:43:32;39.40;37.12;41.22;;
40465;Laerm;30489;48.982;8.394;2023-06-22T06:45:42;39.41;37.32;41.14;;
40465;Laerm;30489;48.982;8.394;2023-06-22T06:47:57;39.42;36.91;41.30;;
40465;Laerm;30489;48.982;8.394;2023-06-22T06:50:08;39.42;37.12;41.22;;
40465;Laerm;30489;48.982;8.394;2023-06-22T06:52:18;39.48;37.32;41.53;;
40465;Laerm;30489;48.982;8.394;2023-06-22T06:54:30;39.51;36.91;41.14;;
40465;Laerm;30489;48.982;8.394;2023-06-22T06:56:40;39.49;37.32;41.30;;
40465;Laerm;30489;48.982;8.394;2023-06-22T06:58:50;39.54;37.32;41.14;;
40465;Laerm;30489;48.982;8.394;2023-06-22T07:01:01;39.56;37.32;42.09;;
40465;Laerm;30489;48.982;8.394;2023-06-22T07:03:18;39.56;37.32;41.38;;
40465;Laerm;30489;48.982;8.394;2023-06-22T07:05:29;39.57;37.52;41.22;;
40465;Laerm;30489;48.982;8.394;2023-06-22T07:07:39;39.64;37.70;41.30;;
40465;Laerm;30489;48.982;8.394;2023-06-22T07:09:49;39.68;37.70;41.61;;
40465;Laerm;30489;48.982;8.394;2023-06-22T07:11:59;39.68;37.88;41.22;;
40465;Laerm;30489;48.982;8.394;2023-06-22T07:14:10;39.72;37.70;41.22;;
40465;Laerm;30489;48.982;8.394;2023-06-22T07:16:20;39.79;37.70;41.46;;
40465;Laerm;30489;48.982;8.394;2023-06-22T07:18:33;39.76;37.32;41.46;;
40465;Laerm;30489;48.982;8.394;2023-06-22T07:20:43;39.79;37.88;42.41;;
40465;Laerm;30489;48.982;8.394;2023-06-22T07:22:54;39.79;37.70;43.94;;
40465;Laerm;30489;48.982;8.394;2023-06-22T07:25:04;39.82;37.88;41.30;;
40465;Laerm;30489;48.982;8.394;2023-06-22T07:27:18;39.84;37.70;41.53;;
40465;Laerm;30489;48.982;8.394;2023-06-22T07:29:29;39.83;38.05;41.53;;
40465;Laerm;30489;48.982;8.394;2023-06-22T07:31:40;39.83;37.87;41.61;;
40465;Laerm;30489;48.982;8.394;2023-06-22T07:33:51;39.90;38.05;41.53;;
40465;Laerm;30489;48.982;8.394;2023-06-22T07:36:01;40.03;38.21;41.68;;
40465;Laerm;30489;48.982;8.394;2023-06-22T07:38:17;40.08;38.37;41.61;;
40465;Laerm;30489;48.982;8.394;2023-06-22T07:40:27;40.11;38.37;41.82;;
40465;Laerm;30489;48.982;8.394;2023-06-22T07:42:41;40.17;38.52;41.68;;
40465;Laerm;30489;48.982;8.394;2023-06-22T07:44:53;40.08;38.18;41.48;;
40465;Laerm;30489;48.982;8.394;2023-06-22T07:47:04;40.11;38.21;41.61;;
40465;Laerm;30489;48.982;8.394;2023-06-22T07:49:14;40.09;38.21;41.82;;
40465;Laerm;30489;48.982;8.394;2023-06-22T07:51:25;40.11;38.37;42.09;;
40465;Laerm;30489;48.982;8.394;2023-06-22T07:53:35;40.16;38.37;41.61;;
40465;Laerm;30489;48.982;8.394;2023-06-22T07:55:46;40.13;38.21;41.61;;
40465;Laerm;30489;48.982;8.394;2023-06-22T07:57:56;40.18;38.52;41.75;;
40465;Laerm;30489;48.982;8.394;2023-06-22T08:00:06;40.20;38.37;41.75;;
40465;Laerm;30489;48.982;8.394;2023-06-22T08:02:25;40.24;38.47;41.82;;
40465;Laerm;30489;48.982;8.394;2023-06-22T08:04:36;40.25;38.37;42.76;;
40465;Laerm;30489;48.982;8.394;2023-06-22T08:06:46;40.34;38.81;42.03;;
40465;Laerm;30489;48.982;8.394;2023-06-22T08:08:59;40.37;38.52;41.75;;
40465;Laerm;30489;48.982;8.394;2023-06-22T08:11:09;40.35;38.47;41.82;;
40465;Laerm;30489;48.982;8.394;2023-06-22T08:13:19;40.38;38.74;41.61;;
40465;Laerm;30489;48.982;8.394;2023-06-22T08:15:29;40.40;38.81;41.82;;
40465;Laerm;30489;48.982;8.394;2023-06-22T08:17:40;40.43;38.81;41.94;;
40465;Laerm;30489;48.982;8.394;2023-06-22T08:19:50;40.45;38.81;42.00;;
40465;Laerm;30489;48.982;8.394;2023-06-22T08:22:00;40.50;38.95;41.75;;
40465;Laerm;30489;48.982;8.394;2023-06-22T08:24:13;40.52;38.81;42.03;;
40465;Laerm;30489;48.982;8.394;2023-06-22T08:26:28;40.54;38.81;47.52;;
40465;Laerm;30489;48.982;8.394;2023-06-22T08:28:38;40.60;39.08;42.09;;
40465;Laerm;30489;48.982;8.394;2023-06-22T08:30:49;40.54;38.67;41.96;;
40465;Laerm;30489;48.982;8.394;2023-06-22T08:32:59;40.58;39.21;42.03;;
40465;Laerm;30489;48.982;8.394;2023-06-22T08:35:09;40.63;39.08;42.03;;
40465;Laerm;30489;48.982;8.394;2023-06-22T08:37:22;40.60;39.08;41.82;;
40465;Laerm;30489;48.982;8.394;2023-06-22T08:39:40;40.62;38.95;41.96;;
40465;Laerm;30489;48.982;8.394;2023-06-22T08:41:51;40.61;39.08;41.94;;
40465;Laerm;30489;48.982;8.394;2023-06-22T08:44:01;40.71;39.21;43.94;;
40465;Laerm;30489;48.982;8.394;2023-06-22T08:46:11;40.70;39.08;42.09;;
40465;Laerm;30489;48.982;8.394;2023-06-22T08:48:32;40.73;39.46;42.13;;
40465;Laerm;30489;48.982;8.394;2023-06-22T08:50:42;40.81;38.81;42.09;;
40465;Laerm;30489;48.982;8.394;2023-06-22T08:52:52;40.79;38.67;42.03;;
40465;Laerm;30489;48.982;8.394;2023-06-22T08:55:02;40.82;39.21;42.16;;
40465;Laerm;30489;48.982;8.394;2023-06-22T08:57:13;40.88;39.46;42.29;;
40465;Laerm;30489;48.982;8.394;2023-06-22T08:59:25;40.91;39.34;42.22;;
40465;Laerm;30489;48.982;8.394;2023-06-22T09:01:36;40.90;39.08;42.41;;
40465;Laerm;30489;48.982;8.394;2023-06-22T09:03:48;40.97;39.46;42.41;;
40465;Laerm;30489;48.982;8.394;2023-06-22T09:06:04;40.97;39.46;42.16;;
40465;Laerm;30489;48.982;8.394;2023-06-22T09:08:14;40.98;39.08;42.16;;
40465;Laerm;30489;48.982;8.394;2023-06-22T09:10:27;40.98;39.58;42.22;;
40465;Laerm;30489;48.982;8.394;2023-06-22T09:12:44;40.95;39.58;46.30;;
40465;Laerm;30489;48.982;8.394;2023-06-22T09:14:54;41.00;39.70;42.35;;
40465;Laerm;30489;48.982;8.394;2023-06-22T09:17:05;41.07;39.78;42.22;;
40465;Laerm;30489;48.982;8.394;2023-06-22T09:19:18;41.10;39.81;42.41;;
40465;Laerm;30489;48.982;8.394;2023-06-22T09:21:28;41.07;39.70;42.41;;
40465;Laerm;30489;48.982;8.394;2023-06-22T09:23:38;41.07;39.58;42.35;;
40465;Laerm;30489;48.982;8.394;2023-06-22T09:25:49;41.10;39.70;42.47;;
40465;Laerm;30489;48.982;8.394;2023-06-22T09:27:59;41.07;39.46;42.22;;
40465;Laerm;30489;48.982;8.394;2023-06-22T09:30:09;40.96;39.34;42.16;;
40465;Laerm;30489;48.982;8.394;2023-06-22T09:32:20;40.95;39.46;42.09;;
40465;Laerm;30489;48.982;8.394;2023-06-22T09:34:30;41.00;39.58;42.16;;
40465;Laerm;30489;48.982;8.394;2023-06-22T09:36:41;41.11;39.34;42.41;;
40465;Laerm;30489;48.982;8.394;2023-06-22T09:38:51;41.11;39.70;42.41;;
40465;Laerm;30489;48.982;8.394;2023-06-22T09:41:05;41.13;39.81;42.29;;
40465;Laerm;30489;48.982;8.394;2023-06-22T09:43:15;41.09;39.70;45.67;;
40465;Laerm;30489;48.982;8.394;2023-06-22T09:45:26;41.16;39.92;42.22;;
40465;Laerm;30489;48.982;8.394;2023-06-22T09:47:36;41.17;39.81;42.47;;
40465;Laerm;30489;48.982;8.394;2023-06-22T09:49:46;41.22;40.03;42.47;;
40465;Laerm;30489;48.982;8.394;2023-06-22T09:51:56;41.23;39.92;43.54;;
40465;Laerm;30489;48.982;8.394;2023-06-22T09:54:07;41.23;39.92;42.41;;
40465;Laerm;30489;48.982;8.394;2023-06-22T09:56:17;41.24;39.92;42.47;;
40465;Laerm;30489;48.982;8.394;2023-06-22T09:58:27;41.29;39.92;42.53;;
40465;Laerm;30489;48.982;8.394;2023-06-22T10:00:37;41.33;39.92;42.47;;
40465;Laerm;30489;48.982;8.394;2023-06-22T10:02:48;41.28;39.81;42.47;;
40465;Laerm;30489;48.982;8.394;2023-06-22T10:04:58;41.27;39.70;42.47;;
40465;Laerm;30489;48.982;8.394;2023-06-22T10:07:08;41.31;39.70;42.41;;
40465;Laerm;30489;48.982;8.394;2023-06-22T10:09:18;41.29;40.13;42.59;;
40465;Laerm;30489;48.982;8.394;2023-06-22T10:11:29;41.29;39.81;42.41;;
40465;Laerm;30489;48.982;8.394;2023-06-22T10:13:40;41.20;39.46;42.53;;
40465;Laerm;30489;48.982;8.394;2023-06-22T10:15:50;41.26;39.81;42.59;;
40465;Laerm;30489;48.982;8.394;2023-06-22T10:18:02;41.29;40.03;42.59;;
40465;Laerm;30489;48.982;8.394;2023-06-22T10:20:12;41.31;40.03;42.47;;
40465;Laerm;30489;48.982;8.394;2023-06-22T10:22:22;41.29;39.70;42.35;;
40465;Laerm;30489;48.982;8.394;2023-06-22T10:24:32;41.31;39.92;42.47;;
40465;Laerm;30489;48.982;8.394;2023-06-22T10:26:43;41.29;40.03;42.53;;
40465;Laerm;30489;48.982;8.394;2023-06-22T10:28:55;41.30;40.03;48.36;;
40465;Laerm;30489;48.982;8.394;2023-06-22T10:31:06;41.30;40.03;43.09;;
40465;Laerm;30489;48.982;8.394;2023-06-22T10:33:16;41.33;39.92;42.47;;
40465;Laerm;30489;48.982;8.394;2023-06-22T10:35:26;41.28;40.03;42.53;;
40465;Laerm;30489;48.982;8.394;2023-06-22T10:37:36;41.29;39.92;43.19;;
40465;Laerm;30489;48.982;8.394;2023-06-22T10:39:47;41.33;39.92;42.47;;
40465;Laerm;30489;48.982;8.394;2023-06-22T10:41:57;41.33;39.92;42.53;;
40465;Laerm;30489;48.982;8.394;2023-06-22T10:44:07;41.29;39.81;42.53;;
40465;Laerm;30489;48.982;8.394;2023-06-22T10:46:18;41.32;40.03;42.47;;
40465;Laerm;30489;48.982;8.394;2023-06-22T10:48:28;41.35;39.92;42.41;;
40465;Laerm;30489;48.982;8.394;2023-06-22T10:50:38;41.37;39.92;42.47;;
40465;Laerm;30489;48.982;8.394;2023-06-22T10:52:48;41.44;40.13;42.53;;
40465;Laerm;30489;48.982;8.394;2023-06-22T10:54:58;41.48;40.03;42.71;;
40465;Laerm;30489;48.982;8.394;2023-06-22T10:57:09;41.52;40.23;42.53;;
40465;Laerm;30489;48.982;8.394;2023-06-22T10:59:19;41.50;40.23;42.71;;
40465;Laerm;30489;48.982;8.394;2023-06-22T11:01:31;41.49;40.18;42.59;;
40465;Laerm;30489;48.982;8.394;2023-06-22T11:03:43;41.54;40.03;42.71;;
40465;Laerm;30489;48.982;8.394;2023-06-22T11:05:55;41.48;40.03;42.88;;
40465;Laerm;30489;48.982;8.394;2023-06-22T11:08:06;41.46;40.23;42.53;;
40465;Laerm;30489;48.982;8.394;2023-06-22T11:10:16;41.46;40.33;42.88;;
40465;Laerm;30489;48.982;8.394;2023-06-22T11:12:26;41.55;40.33;42.47;;
40465;Laerm;30489;48.982;8.394;2023-06-22T11:14:38;41.58;40.23;42.76;;
40465;Laerm;30489;48.982;8.394;2023-06-22T11:16:49;41.54;40.23;42.59;;
40465;Laerm;30489;48.982;8.394;2023-06-22T11:18:59;41.62;40.23;42.82;;
40465;Laerm;30489;48.982;8.394;2023-06-22T11:21:09;41.62;40.23;42.82;;
40465;Laerm;30489;48.982;8.394;2023-06-22T11:23:19;41.57;40.33;42.76;;
40465;Laerm;30489;48.982;8.394;2023-06-22T11:25:29;41.57;40.33;42.71;;
40465;Laerm;30489;48.982;8.394;2023-06-22T11:27:40;41.61;40.23;42.76;;
40465;Laerm;30489;48.982;8.394;2023-06-22T11:29:50;41.65;40.53;42.98;;
40465;Laerm;30489;48.982;8.394;2023-06-22T11:32:03;41.66;40.53;42.71;;
40465;Laerm;30489;48.982;8.394;2023-06-22T11:34:13;41.68;40.23;42.76;;
40465;Laerm;30489;48.982;8.394;2023-06-22T11:36:23;41.68;40.43;42.82;;
40465;Laerm;30489;48.982;8.394;2023-06-22T11:38:33;41.71;40.53;42.93;;
40465;Laerm;30489;48.982;8.394;2023-06-22T11:40:43;41.66;40.23;42.82;;
40465;Laerm;30489;48.982;8.394;2023-06-22T11:42:54;41.74;40.43;42.95;;
40465;Laerm;30489;48.982;8.394;2023-06-22T11:45:04;41.72;40.23;42.71;;
40465;Laerm;30489;48.982;8.394;2023-06-22T11:47:15;41.75;40.53;42.82;;
40465;Laerm;30489;48.982;8.394;2023-06-22T11:49:25;41.72;40.33;42.76;;
40465;Laerm;30489;48.982;8.394;2023-06-22T11:51:35;41.68;40.43;42.88;;
40465;Laerm;30489;48.982;8.394;2023-06-22T11:53:48;41.69;40.23;42.82;;
40465;Laerm;30489;48.982;8.394;2023-06-22T11:56:00;41.62;40.33;42.82;;
40465;Laerm;30489;48.982;8.394;2023-06-22T11:58:11;41.59;40.13;42.76;;
40465;Laerm;30489;48.982;8.394;2023-06-22T12:00:21;41.65;40.33;42.98;;
40465;Laerm;30489;48.982;8.394;2023-06-22T12:02:33;41.71;40.23;42.82;;
40465;Laerm;30489;48.982;8.394;2023-06-22T12:04:44;41.76;40.43;42.93;;
40465;Laerm;30489;48.982;8.394;2023-06-22T12:06:56;41.76;40.53;42.88;;
40465;Laerm;30489;48.982;8.394;2023-06-22T12:09:08;41.75;40.43;42.82;;
40465;Laerm;30489;48.982;8.394;2023-06-22T12:11:18;41.79;40.43;42.88;;
40465;Laerm;30489;48.982;8.394;2023-06-22T12:13:28;41.76;40.53;42.88;;
40465;Laerm;30489;48.982;8.394;2023-06-22T12:15:38;41.71;40.13;44.87;;
40465;Laerm;30489;48.982;8.394;2023-06-22T12:17:49;41.78;40.53;42.76;;
40465;Laerm;30489;48.982;8.394;2023-06-22T12:20:01;41.77;40.53;42.88;;
40465;Laerm;30489;48.982;8.394;2023-06-22T12:22:17;41.75;40.23;43.04;;